sensor_id;sensor_type;location;lat;lon;timestamp;temperature;humidity
9414;DHT22;4746;35.664;139.738;2022-11-15T00:01:16;12.20;99.90
9414;DHT22;4746;35.664;139.738;2022-11-15T00:03:45;12.20;99.90
9414;DHT22;4746;35.664;139.738;2022-11-15T00:06:13;12.30;99.90
9414;DHT22;4746;35.664;139.738;2022-11-15T00:08:40;12.30;99.90
9414;DHT22;4746;35.664;139.738;2022-11-15T00:11:10;12.30;99.90
9414;DHT22;4746;35.664;139.738;2022-11-15T00:13:39;12.30;99.90
9414;DHT22;4746;35.664;139.738;2022-11-15T00:16:07;12.40;99.90
9414;DHT22;4746;35.664;139.738;2022-11-15T00:18:35;12.40;99.90
9414;DHT22;4746;35.664;139.738;2022-11-15T00:21:13;12.30;99.90
9414;DHT22;4746;35.664;139.738;2022-11-15T00:23:41;12.30;99.90
9414;DHT22;4746;35.664;139.738;2022-11-15T00:26:14;12.30;99.90
9414;DHT22;4746;35.664;139.738;2022-11-15T00:28:42;12.30;99.90
9414;DHT22;4746;35.664;139.738;2022-11-15T00:31:13;12.30;99.90
9414;DHT22;4746;35.664;139.738;2022-11-15T00:33:43;12.30;99.90
9414;DHT22;4746;35.664;139.738;2022-11-15T00:36:11;12.30;99.90
9414;DHT22;4746;35.664;139.738;2022-11-15T00:38:39;12.30;99.90
9414;DHT22;4746;35.664;139.738;2022-11-15T00:41:08;12.30;99.90
9414;DHT22;4746;35.664;139.738;2022-11-15T00:43:36;12.40;99.90
9414;DHT22;4746;35.664;139.738;2022-11-15T00:46:07;12.50;99.90
9414;DHT22;4746;35.664;139.738;2022-11-15T00:48:36;12.50;99.90
9414;DHT22;4746;35.664;139.738;2022-11-15T00:51:03;12.60;99.90
9414;DHT22;4746;35.664;139.738;2022-11-15T00:53:31;12.60;99.90
9414;DHT22;4746;35.664;139.738;2022-11-15T00:55:59;12.70;99.90
9414;DHT22;4746;35.664;139.738;2022-11-15T00:58:26;12.70;99.90
9414;DHT22;4746;35.664;139.738;2022-11-15T01:00:54;12.80;99.90
9414;DHT22;4746;35.664;139.738;2022-11-15T01:03:21;12.80;99.90
9414;DHT22;4746;35.664;139.738;2022-11-15T01:05:49;12.80;99.90
9414;DHT22;4746;35.664;139.738;2022-11-15T01:08:16;12.70;99.90
9414;DHT22;4746;35.664;139.738;2022-11-15T01:10:44;12.70;99.90
9414;DHT22;4746;35.664;139.738;2022-11-15T01:13:11;12.70;99.90
9414;DHT22;4746;35.664;139.738;2022-11-15T01:15:42;12.70;99.90
9414;DHT22;4746;35.664;139.738;2022-11-15T01:18:10;12.70;99.90
9414;DHT22;4746;35.664;139.738;2022-11-15T01:20:43;12.80;99.90
9414;DHT22;4746;35.664;139.738;2022-11-15T01:23:11;12.80;99.90
9414;DHT22;4746;35.664;139.738;2022-11-15T01:25:38;12.70;99.90
9414;DHT22;4746;35.664;139.738;2022-11-15T01:28:06;12.70;99.90
9414;DHT22;4746;35.664;139.738;2022-11-15T01:30:35;12.70;99.90
9414;DHT22;4746;35.664;139.738;2022-11-15T01:33:04;12.70;99.90
9414;DHT22;4746;35.664;139.738;2022-11-15T01:35:32;12.80;99.90
9414;DHT22;4746;35.664;139.738;2022-11-15T01:37:59;12.90;99.90
9414;DHT22;4746;35.664;139.738;2022-11-15T01:40:27;12.90;99.90
9414;DHT22;4746;35.664;139.738;2022-11-15T01:42:54;13.00;99.90
9414;DHT22;4746;35.664;139.738;2022-11-15T01:45:24;13.00;99.90
9414;DHT22;4746;35.664;139.738;2022-11-15T01:47:55;13.10;99.90
9414;DHT22;4746;35.664;139.738;2022-11-15T01:50:30;13.10;99.90
9414;DHT22;4746;35.664;139.738;2022-11-15T01:52:59;13.10;99.90
9414;DHT22;4746;35.664;139.738;2022-11-15T01:55:28;13.10;99.90
9414;DHT22;4746;35.664;139.738;2022-11-15T01:57:59;13.10;99.90
9414;DHT22;4746;35.664;139.738;2022-11-15T02:00:30;13.10;99.90
9414;DHT22;4746;35.664;139.738;2022-11-15T02:02:58;13.10;99.90
9414;DHT22;4746;35.664;139.738;2022-11-15T02:05:26;13.20;99.90
9414;DHT22;4746;35.664;139.738;2022-11-15T02:07:54;13.20;99.90
9414;DHT22;4746;35.664;139.738;2022-11-15T02:10:24;13.30;99.90
9414;DHT22;4746;35.664;139.738;2022-11-15T02:12:52;13.30;99.90
9414;DHT22;4746;35.664;139.738;2022-11-15T02:15:24;13.30;99.90
9414;DHT22;4746;35.664;139.738;2022-11-15T02:21:22;13.50;99.90
9414;DHT22;4746;35.664;139.738;2022-11-15T02:31:55;13.20;99.90
9414;DHT22;4746;35.664;139.738;2022-11-15T02:35:24;13.30;99.90
9414;DHT22;4746;35.664;139.738;2022-11-15T02:38:08;13.30;99.90
9414;DHT22;4746;35.664;139.738;2022-11-15T02:40:49;13.30;99.90
9414;DHT22;4746;35.664;139.738;2022-11-15T02:44:02;13.30;99.90
9414;DHT22;4746;35.664;139.738;2022-11-15T02:47:00;13.30;99.90
9414;DHT22;4746;35.664;139.738;2022-11-15T02:49:52;13.30;99.90
9414;DHT22;4746;35.664;139.738;2022-11-15T02:52:23;13.40;99.90
9414;DHT22;4746;35.664;139.738;2022-11-15T02:54:56;13.40;99.90
9414;DHT22;4746;35.664;139.738;2022-11-15T02:57:52;13.40;99.90
9414;DHT22;4746;35.664;139.738;2022-11-15T03:00:47;13.40;99.90
9414;DHT22;4746;35.664;139.738;2022-11-15T03:03:55;13.40;99.90
9414;DHT22;4746;35.664;139.738;2022-11-15T03:06:48;13.30;99.90
9414;DHT22;4746;35.664;139.738;2022-11-15T03:12:30;13.50;99.90
9414;DHT22;4746;35.664;139.738;2022-11-15T03:15:17;13.50;99.90
9414;DHT22;4746;35.664;139.738;2022-11-15T03:17:59;13.50;99.90
9414;DHT22;4746;35.664;139.738;2022-11-15T03:20:31;13.50;99.90
9414;DHT22;4746;35.664;139.738;2022-11-15T03:23:09;13.50;99.90
9414;DHT22;4746;35.664;139.738;2022-11-15T03:25:41;13.50;99.90
9414;DHT22;4746;35.664;139.738;2022-11-15T03:28:34;13.50;99.90
9414;DHT22;4746;35.664;139.738;2022-11-15T03:31:06;13.60;99.90
9414;DHT22;4746;35.664;139.738;2022-11-15T03:33:55;13.50;99.90
9414;DHT22;4746;35.664;139.738;2022-11-15T03:36:27;13.60;99.90
9414;DHT22;4746;35.664;139.738;2022-11-15T03:39:00;13.60;99.90
9414;DHT22;4746;35.664;139.738;2022-11-15T03:41:43;13.60;99.90
9414;DHT22;4746;35.664;139.738;2022-11-15T03:44:36;13.70;99.90
9414;DHT22;4746;35.664;139.738;2022-11-15T03:50:19;13.90;99.90
9414;DHT22;4746;35.664;139.738;2022-11-15T03:52:49;13.80;99.90
9414;DHT22;4746;35.664;139.738;2022-11-15T03:55:20;13.70;99.90
9414;DHT22;4746;35.664;139.738;2022-11-15T03:57:52;13.70;99.90
9414;DHT22;4746;35.664;139.738;2022-11-15T04:00:23;13.60;99.90
9414;DHT22;4746;35.664;139.738;2022-11-15T04:02:50;13.60;99.90
9414;DHT22;4746;35.664;139.738;2022-11-15T04:05:18;13.70;99.90
9414;DHT22;4746;35.664;139.738;2022-11-15T04:07:46;13.70;99.90
9414;DHT22;4746;35.664;139.738;2022-11-15T04:10:13;13.70;99.90
9414;DHT22;4746;35.664;139.738;2022-11-15T04:12:43;13.80;99.90
9414;DHT22;4746;35.664;139.738;2022-11-15T04:15:16;13.80;99.90
9414;DHT22;4746;35.664;139.738;2022-11-15T04:17:49;13.80;99.90
9414;DHT22;4746;35.664;139.738;2022-11-15T04:20:31;13.80;99.90
9414;DHT22;4746;35.664;139.738;2022-11-15T04:23:21;13.80;99.90
9414;DHT22;4746;35.664;139.738;2022-11-15T04:26:19;13.80;99.90
9414;DHT22;4746;35.664;139.738;2022-11-15T04:28:49;13.90;99.90
9414;DHT22;4746;35.664;139.738;2022-11-15T04:31:34;13.80;99.90
9414;DHT22;4746;35.664;139.738;2022-11-15T04:34:02;13.90;99.90
9414;DHT22;4746;35.664;139.738;2022-11-15T04:36:29;13.90;99.90
9414;DHT22;4746;35.664;139.738;2022-11-15T04:39:15;13.80;99.90
9414;DHT22;4746;35.664;139.738;2022-11-15T04:41:42;13.70;99.90
9414;DHT22;4746;35.664;139.738;2022-11-15T04:44:10;13.60;99.90
9414;DHT22;4746;35.664;139.738;2022-11-15T04:46:37;13.60;99.90
9414;DHT22;4746;35.664;139.738;2022-11-15T04:49:05;13.60;99.90
9414;DHT22;4746;35.664;139.738;2022-11-15T04:51:32;13.70;99.90
9414;DHT22;4746;35.664;139.738;2022-11-15T04:54:00;13.60;99.90
9414;DHT22;4746;35.664;139.738;2022-11-15T04:56:27;13.70;99.90
9414;DHT22;4746;35.664;139.738;2022-11-15T04:58:55;13.70;99.90
9414;DHT22;4746;35.664;139.738;2022-11-15T05:01:22;13.90;99.90
9414;DHT22;4746;35.664;139.738;2022-11-15T05:03:50;14.00;99.90
9414;DHT22;4746;35.664;139.738;2022-11-15T05:06:37;14.00;99.90
9414;DHT22;4746;35.664;139.738;2022-11-15T05:09:05;14.00;99.90
9414;DHT22;4746;35.664;139.738;2022-11-15T05:11:32;14.00;99.90
9414;DHT22;4746;35.664;139.738;2022-11-15T05:14:00;14.00;99.90
9414;DHT22;4746;35.664;139.738;2022-11-15T05:16:28;13.90;99.90
9414;DHT22;4746;35.664;139.738;2022-11-15T05:18:56;13.90;99.90
9414;DHT22;4746;35.664;139.738;2022-11-15T05:21:23;14.00;99.90
9414;DHT22;4746;35.664;139.738;2022-11-15T05:23:51;14.00;99.90
9414;DHT22;4746;35.664;139.738;2022-11-15T05:26:19;14.10;99.90
9414;DHT22;4746;35.664;139.738;2022-11-15T05:28:51;14.10;99.90
9414;DHT22;4746;35.664;139.738;2022-11-15T05:31:22;14.10;99.90
9414;DHT22;4746;35.664;139.738;2022-11-15T05:33:51;14.20;99.90
9414;DHT22;4746;35.664;139.738;2022-11-15T05:36:25;14.20;99.90
9414;DHT22;4746;35.664;139.738;2022-11-15T05:39:06;14.20;99.90
9414;DHT22;4746;35.664;139.738;2022-11-15T05:44:09;14.30;99.90
9414;DHT22;4746;35.664;139.738;2022-11-15T05:46:41;14.50;99.90
9414;DHT22;4746;35.664;139.738;2022-11-15T05:49:12;14.50;99.90
9414;DHT22;4746;35.664;139.738;2022-11-15T05:51:45;14.60;99.90
9414;DHT22;4746;35.664;139.738;2022-11-15T05:54:15;14.70;99.90
9414;DHT22;4746;35.664;139.738;2022-11-15T05:56:44;14.70;99.90
9414;DHT22;4746;35.664;139.738;2022-11-15T05:59:12;14.60;99.90
9414;DHT22;4746;35.664;139.738;2022-11-15T06:01:40;14.60;99.90
9414;DHT22;4746;35.664;139.738;2022-11-15T06:04:08;14.50;99.90
9414;DHT22;4746;35.664;139.738;2022-11-15T06:06:36;14.50;99.90
9414;DHT22;4746;35.664;139.738;2022-11-15T06:09:03;14.60;99.90
9414;DHT22;4746;35.664;139.738;2022-11-15T06:11:30;14.50;99.90
9414;DHT22;4746;35.664;139.738;2022-11-15T06:13:58;14.50;99.90
9414;DHT22;4746;35.664;139.738;2022-11-15T06:16:25;14.60;99.90
9414;DHT22;4746;35.664;139.738;2022-11-15T06:18:53;14.80;99.90
9414;DHT22;4746;35.664;139.738;2022-11-15T06:21:20;14.90;99.90
9414;DHT22;4746;35.664;139.738;2022-11-15T06:23:50;15.10;99.90
9414;DHT22;4746;35.664;139.738;2022-11-15T06:26:18;15.20;99.90
9414;DHT22;4746;35.664;139.738;2022-11-15T06:28:45;15.20;99.90
9414;DHT22;4746;35.664;139.738;2022-11-15T06:31:13;15.10;99.90
9414;DHT22;4746;35.664;139.738;2022-11-15T06:33:40;15.10;99.90
9414;DHT22;4746;35.664;139.738;2022-11-15T06:36:11;15.10;99.90
9414;DHT22;4746;35.664;139.738;2022-11-15T06:38:44;15.00;99.90
9414;DHT22;4746;35.664;139.738;2022-11-15T06:41:13;14.90;99.90
9414;DHT22;4746;35.664;139.738;2022-11-15T06:43:41;14.80;99.90
9414;DHT22;4746;35.664;139.738;2022-11-15T06:46:09;14.80;99.90
9414;DHT22;4746;35.664;139.738;2022-11-15T06:48:37;14.60;99.90
9414;DHT22;4746;35.664;139.738;2022-11-15T06:51:05;14.60;99.90
9414;DHT22;4746;35.664;139.738;2022-11-15T06:53:34;14.60;99.90
9414;DHT22;4746;35.664;139.738;2022-11-15T06:56:03;14.60;99.90
9414;DHT22;4746;35.664;139.738;2022-11-15T06:58:33;14.60;99.90
9414;DHT22;4746;35.664;139.738;2022-11-15T07:01:06;14.60;99.90
9414;DHT22;4746;35.664;139.738;2022-11-15T07:03:39;14.50;99.90
9414;DHT22;4746;35.664;139.738;2022-11-15T07:06:09;14.40;99.90
9414;DHT22;4746;35.664;139.738;2022-11-15T07:08:36;14.40;99.90
9414;DHT22;4746;35.664;139.738;2022-11-15T07:11:06;14.30;99.90
9414;DHT22;4746;35.664;139.738;2022-11-15T07:13:35;14.20;99.90
9414;DHT22;4746;35.664;139.738;2022-11-15T07:16:09;14.10;99.90
9414;DHT22;4746;35.664;139.738;2022-11-15T07:18:38;14.10;99.90
9414;DHT22;4746;35.664;139.738;2022-11-15T07:21:09;14.00;99.90
9414;DHT22;4746;35.664;139.738;2022-11-15T07:23:39;14.00;99.90
9414;DHT22;4746;35.664;139.738;2022-11-15T07:26:07;13.90;99.90
9414;DHT22;4746;35.664;139.738;2022-11-15T07:28:35;13.80;99.90
9414;DHT22;4746;35.664;139.738;2022-11-15T07:31:05;13.80;99.90
9414;DHT22;4746;35.664;139.738;2022-11-15T07:33:34;13.70;99.90
9414;DHT22;4746;35.664;139.738;2022-11-15T07:36:02;13.70;99.90
9414;DHT22;4746;35.664;139.738;2022-11-15T07:38:32;13.70;99.90
9414;DHT22;4746;35.664;139.738;2022-11-15T07:41:03;13.60;99.90
9414;DHT22;4746;35.664;139.738;2022-11-15T07:43:31;13.60;99.90
9414;DHT22;4746;35.664;139.738;2022-11-15T07:46:05;13.60;99.90
9414;DHT22;4746;35.664;139.738;2022-11-15T07:48:36;13.60;99.90
9414;DHT22;4746;35.664;139.738;2022-11-15T07:51:06;13.60;99.90
9414;DHT22;4746;35.664;139.738;2022-11-15T07:53:37;13.60;99.90
9414;DHT22;4746;35.664;139.738;2022-11-15T07:56:06;13.60;99.90
9414;DHT22;4746;35.664;139.738;2022-11-15T07:58:35;13.60;99.90
9414;DHT22;4746;35.664;139.738;2022-11-15T08:01:08;13.60;99.90
9414;DHT22;4746;35.664;139.738;2022-11-15T08:03:37;13.60;99.90
9414;DHT22;4746;35.664;139.738;2022-11-15T08:06:05;13.60;99.90
9414;DHT22;4746;35.664;139.738;2022-11-15T08:08:32;13.60;99.90
9414;DHT22;4746;35.664;139.738;2022-11-15T08:11:02;13.60;99.90
9414;DHT22;4746;35.664;139.738;2022-11-15T08:13:30;13.60;99.90
9414;DHT22;4746;35.664;139.738;2022-11-15T08:16:01;13.60;99.90
9414;DHT22;4746;35.664;139.738;2022-11-15T08:18:31;13.60;99.90
9414;DHT22;4746;35.664;139.738;2022-11-15T08:21:00;13.60;99.90
9414;DHT22;4746;35.664;139.738;2022-11-15T08:23:29;13.70;99.90
9414;DHT22;4746;35.664;139.738;2022-11-15T08:26:01;13.60;99.90
9414;DHT22;4746;35.664;139.738;2022-11-15T08:28:30;13.60;99.90
9414;DHT22;4746;35.664;139.738;2022-11-15T08:30:59;13.60;99.90
9414;DHT22;4746;35.664;139.738;2022-11-15T08:33:28;13.60;99.90
9414;DHT22;4746;35.664;139.738;2022-11-15T08:35:57;13.60;99.90
9414;DHT22;4746;35.664;139.738;2022-11-15T08:38:26;13.60;99.90
9414;DHT22;4746;35.664;139.738;2022-11-15T08:41:02;13.60;99.90
9414;DHT22;4746;35.664;139.738;2022-11-15T08:43:32;13.60;99.90
9414;DHT22;4746;35.664;139.738;2022-11-15T08:46:00;13.60;99.90
9414;DHT22;4746;35.664;139.738;2022-11-15T08:48:27;13.60;99.90
9414;DHT22;4746;35.664;139.738;2022-11-15T08:50:56;13.60;99.90
9414;DHT22;4746;35.664;139.738;2022-11-15T08:53:24;13.60;99.90
9414;DHT22;4746;35.664;139.738;2022-11-15T08:55:51;13.50;99.90
9414;DHT22;4746;35.664;139.738;2022-11-15T08:58:19;13.50;99.90
9414;DHT22;4746;35.664;139.738;2022-11-15T09:00:46;13.50;99.90
9414;DHT22;4746;35.664;139.738;2022-11-15T09:03:14;13.50;99.90
9414;DHT22;4746;35.664;139.738;2022-11-15T09:05:41;13.40;99.90
9414;DHT22;4746;35.664;139.738;2022-11-15T09:08:09;13.40;99.90
9414;DHT22;4746;35.664;139.738;2022-11-15T09:10:39;13.40;99.90
9414;DHT22;4746;35.664;139.738;2022-11-15T09:13:06;13.40;99.90
9414;DHT22;4746;35.664;139.738;2022-11-15T09:15:33;13.40;99.90
9414;DHT22;4746;35.664;139.738;2022-11-15T09:18:01;13.40;99.90
9414;DHT22;4746;35.664;139.738;2022-11-15T09:20:29;13.40;99.90
9414;DHT22;4746;35.664;139.738;2022-11-15T09:23:02;13.40;99.90
9414;DHT22;4746;35.664;139.738;2022-11-15T09:25:31;13.40;99.90
9414;DHT22;4746;35.664;139.738;2022-11-15T09:27:59;13.40;99.90
9414;DHT22;4746;35.664;139.738;2022-11-15T09:30:26;13.50;99.90
9414;DHT22;4746;35.664;139.738;2022-11-15T09:32:54;13.40;99.90
9414;DHT22;4746;35.664;139.738;2022-11-15T09:35:21;13.40;99.90
9414;DHT22;4746;35.664;139.738;2022-11-15T09:37:49;13.40;99.90
9414;DHT22;4746;35.664;139.738;2022-11-15T09:40:17;13.40;99.90
9414;DHT22;4746;35.664;139.738;2022-11-15T09:48:56;13.40;99.90
9414;DHT22;4746;35.664;139.738;2022-11-15T09:51:30;13.40;99.90
9414;DHT22;4746;35.664;139.738;2022-11-15T09:54:51;13.40;99.90
9414;DHT22;4746;35.664;139.738;2022-11-15T09:57:03;13.40;99.90
9414;DHT22;4746;35.664;139.738;2022-11-15T10:05:28;13.40;99.90
9414;DHT22;4746;35.664;139.738;2022-11-15T10:11:01;13.30;99.90
9414;DHT22;4746;35.664;139.738;2022-11-15T10:13:41;13.30;99.90
9414;DHT22;4746;35.664;139.738;2022-11-15T10:24:58;13.30;99.90
9414;DHT22;4746;35.664;139.738;2022-11-15T10:27:33;13.40;99.90
9414;DHT22;4746;35.664;139.738;2022-11-15T10:30:02;13.30;99.90
9414;DHT22;4746;35.664;139.738;2022-11-15T10:32:37;13.30;99.90
9414;DHT22;4746;35.664;139.738;2022-11-15T10:35:28;13.30;99.90
9414;DHT22;4746;35.664;139.738;2022-11-15T10:38:11;13.30;99.90
9414;DHT22;4746;35.664;139.738;2022-11-15T10:40:40;13.30;99.90
9414;DHT22;4746;35.664;139.738;2022-11-15T10:45:38;13.30;99.90
9414;DHT22;4746;35.664;139.738;2022-11-15T10:50:49;13.30;99.90
9414;DHT22;4746;35.664;139.738;2022-11-15T10:53:33;13.30;99.90
9414;DHT22;4746;35.664;139.738;2022-11-15T10:56:12;13.30;99.90
9414;DHT22;4746;35.664;139.738;2022-11-15T10:58:44;13.30;99.90
9414;DHT22;4746;35.664;139.738;2022-11-15T11:01:24;13.30;99.90
9414;DHT22;4746;35.664;139.738;2022-11-15T11:04:02;13.30;99.90
9414;DHT22;4746;35.664;139.738;2022-11-15T11:06:53;13.30;99.90
9414;DHT22;4746;35.664;139.738;2022-11-15T11:09:31;13.30;99.90
9414;DHT22;4746;35.664;139.738;2022-11-15T11:12:00;13.30;99.90
9414;DHT22;4746;35.664;139.738;2022-11-15T11:14:33;13.30;99.90
9414;DHT22;4746;35.664;139.738;2022-11-15T11:17:28;13.30;99.90
9414;DHT22;4746;35.664;139.738;2022-11-15T11:26:25;13.30;99.90
9414;DHT22;4746;35.664;139.738;2022-11-15T11:35:35;13.20;99.90
9414;DHT22;4746;35.664;139.738;2022-11-15T11:47:24;13.30;99.90
9414;DHT22;4746;35.664;139.738;2022-11-15T11:50:15;13.30;99.90
9414;DHT22;4746;35.664;139.738;2022-11-15T11:53:14;13.30;99.90
9414;DHT22;4746;35.664;139.738;2022-11-15T11:56:09;13.30;99.90
9414;DHT22;4746;35.664;139.738;2022-11-15T11:58:48;13.30;99.90
9414;DHT22;4746;35.664;139.738;2022-11-15T12:01:27;13.30;99.90
9414;DHT22;4746;35.664;139.738;2022-11-15T12:07:01;13.20;99.90
9414;DHT22;4746;35.664;139.738;2022-11-15T12:12:46;13.20;99.90
9414;DHT22;4746;35.664;139.738;2022-11-15T12:15:42;13.10;99.90
9414;DHT22;4746;35.664;139.738;2022-11-15T12:18:19;13.10;99.90
9414;DHT22;4746;35.664;139.738;2022-11-15T12:21:07;13.10;99.90
9414;DHT22;4746;35.664;139.738;2022-11-15T12:23:54;13.10;99.90
9414;DHT22;4746;35.664;139.738;2022-11-15T12:26:37;13.10;99.90
9414;DHT22;4746;35.664;139.738;2022-11-15T12:29:37;13.00;99.90
9414;DHT22;4746;35.664;139.738;2022-11-15T12:35:20;13.00;99.90
9414;DHT22;4746;35.664;139.738;2022-11-15T12:38:09;13.00;99.90
9414;DHT22;4746;35.664;139.738;2022-11-15T12:41:13;12.90;99.90
9414;DHT22;4746;35.664;139.738;2022-11-15T12:43:44;12.90;99.90
9414;DHT22;4746;35.664;139.738;2022-11-15T13:07:56;12.60;99.90
9414;DHT22;4746;35.664;139.738;2022-11-15T13:10:32;12.60;99.90
9414;DHT22;4746;35.664;139.738;2022-11-15T13:13:09;12.60;99.90
9414;DHT22;4746;35.664;139.738;2022-11-15T13:15:58;12.60;99.90
9414;DHT22;4746;35.664;139.738;2022-11-15T13:18:37;12.60;99.90
9414;DHT22;4746;35.664;139.738;2022-11-15T13:21:20;12.60;99.90
9414;DHT22;4746;35.664;139.738;2022-11-15T13:24:13;12.60;99.90
9414;DHT22;4746;35.664;139.738;2022-11-15T13:26:43;12.70;99.90
9414;DHT22;4746;35.664;139.738;2022-11-15T13:29:17;12.60;99.90
9414;DHT22;4746;35.664;139.738;2022-11-15T13:31:46;12.60;99.90
9414;DHT22;4746;35.664;139.738;2022-11-15T13:34:45;12.70;99.90
9414;DHT22;4746;35.664;139.738;2022-11-15T13:39:49;12.70;99.90
9414;DHT22;4746;35.664;139.738;2022-11-15T13:42:20;12.60;99.90
9414;DHT22;4746;35.664;139.738;2022-11-15T13:44:59;12.60;99.90
9414;DHT22;4746;35.664;139.738;2022-11-15T13:47:30;12.60;99.90
9414;DHT22;4746;35.664;139.738;2022-11-15T13:49:59;12.50;99.90
9414;DHT22;4746;35.664;139.738;2022-11-15T13:52:33;12.60;99.90
9414;DHT22;4746;35.664;139.738;2022-11-15T13:55:12;12.50;99.90
9414;DHT22;4746;35.664;139.738;2022-11-15T13:57:59;12.50;99.90
9414;DHT22;4746;35.664;139.738;2022-11-15T14:00:43;12.50;99.90
9414;DHT22;4746;35.664;139.738;2022-11-15T14:03:21;12.50;99.90
9414;DHT22;4746;35.664;139.738;2022-11-15T14:06:09;12.50;99.90
9414;DHT22;4746;35.664;139.738;2022-11-15T14:08:41;12.50;99.90
9414;DHT22;4746;35.664;139.738;2022-11-15T14:11:30;12.50;99.90
9414;DHT22;4746;35.664;139.738;2022-11-15T14:16:42;12.40;99.90
9414;DHT22;4746;35.664;139.738;2022-11-15T14:24:37;12.30;99.90
9414;DHT22;4746;35.664;139.738;2022-11-15T14:27:26;12.30;99.90
9414;DHT22;4746;35.664;139.738;2022-11-15T14:29:57;12.30;99.90
9414;DHT22;4746;35.664;139.738;2022-11-15T14:32:39;12.30;99.90
9414;DHT22;4746;35.664;139.738;2022-11-15T14:35:16;12.30;99.90
9414;DHT22;4746;35.664;139.738;2022-11-15T14:37:45;12.30;99.90
9414;DHT22;4746;35.664;139.738;2022-11-15T14:40:16;12.20;99.90
9414;DHT22;4746;35.664;139.738;2022-11-15T14:42:49;12.20;99.90
9414;DHT22;4746;35.664;139.738;2022-11-15T14:45:26;12.20;99.90
9414;DHT22;4746;35.664;139.738;2022-11-15T14:47:54;12.20;99.90
9414;DHT22;4746;35.664;139.738;2022-11-15T14:50:22;12.20;99.90
9414;DHT22;4746;35.664;139.738;2022-11-15T14:52:49;12.20;99.90
9414;DHT22;4746;35.664;139.738;2022-11-15T14:55:23;12.20;99.90
9414;DHT22;4746;35.664;139.738;2022-11-15T14:57:54;12.20;99.90
9414;DHT22;4746;35.664;139.738;2022-11-15T15:00:22;12.20;99.90
9414;DHT22;4746;35.664;139.738;2022-11-15T15:03:10;12.20;99.90
9414;DHT22;4746;35.664;139.738;2022-11-15T15:05:43;12.30;99.90
9414;DHT22;4746;35.664;139.738;2022-11-15T15:08:11;12.30;99.90
9414;DHT22;4746;35.664;139.738;2022-11-15T15:10:42;12.30;99.90
9414;DHT22;4746;35.664;139.738;2022-11-15T15:13:22;12.30;99.90
9414;DHT22;4746;35.664;139.738;2022-11-15T15:15:51;12.30;99.90
9414;DHT22;4746;35.664;139.738;2022-11-15T15:18:19;12.30;99.90
9414;DHT22;4746;35.664;139.738;2022-11-15T15:20:53;12.30;99.90
9414;DHT22;4746;35.664;139.738;2022-11-15T15:23:33;12.30;99.90
9414;DHT22;4746;35.664;139.738;2022-11-15T15:26:01;12.30;99.90
9414;DHT22;4746;35.664;139.738;2022-11-15T15:28:29;12.30;99.90
9414;DHT22;4746;35.664;139.738;2022-11-15T15:30:56;12.30;99.90
9414;DHT22;4746;35.664;139.738;2022-11-15T15:33:24;12.30;99.90
9414;DHT22;4746;35.664;139.738;2022-11-15T15:35:52;12.30;99.90
9414;DHT22;4746;35.664;139.738;2022-11-15T15:38:20;12.30;99.90
9414;DHT22;4746;35.664;139.738;2022-11-15T15:40:47;12.30;99.90
9414;DHT22;4746;35.664;139.738;2022-11-15T15:43:15;12.30;99.90
9414;DHT22;4746;35.664;139.738;2022-11-15T15:45:42;12.30;99.90
9414;DHT22;4746;35.664;139.738;2022-11-15T15:48:13;12.30;99.90
9414;DHT22;4746;35.664;139.738;2022-11-15T15:50:44;12.30;99.90
9414;DHT22;4746;35.664;139.738;2022-11-15T15:53:13;12.30;99.90
9414;DHT22;4746;35.664;139.738;2022-11-15T15:55:41;12.30;99.90
9414;DHT22;4746;35.664;139.738;2022-11-15T15:58:12;12.30;99.90
9414;DHT22;4746;35.664;139.738;2022-11-15T16:00:40;12.30;99.90
9414;DHT22;4746;35.664;139.738;2022-11-15T16:03:08;12.30;99.90
9414;DHT22;4746;35.664;139.738;2022-11-15T16:05:35;12.30;99.90
9414;DHT22;4746;35.664;139.738;2022-11-15T16:08:03;12.30;99.90
9414;DHT22;4746;35.664;139.738;2022-11-15T16:10:34;12.20;99.90
9414;DHT22;4746;35.664;139.738;2022-11-15T16:13:03;12.20;99.90
9414;DHT22;4746;35.664;139.738;2022-11-15T16:15:35;12.20;99.90
9414;DHT22;4746;35.664;139.738;2022-11-15T16:18:04;12.20;99.90
9414;DHT22;4746;35.664;139.738;2022-11-15T16:23:13;12.20;99.90
9414;DHT22;4746;35.664;139.738;2022-11-15T16:25:46;12.30;99.90
9414;DHT22;4746;35.664;139.738;2022-11-15T16:28:24;12.30;99.90
9414;DHT22;4746;35.664;139.738;2022-11-15T16:31:05;12.30;99.90
9414;DHT22;4746;35.664;139.738;2022-11-15T16:33:37;12.30;99.90
9414;DHT22;4746;35.664;139.738;2022-11-15T16:36:06;12.30;99.90
9414;DHT22;4746;35.664;139.738;2022-11-15T16:38:50;12.30;99.90
9414;DHT22;4746;35.664;139.738;2022-11-15T16:41:18;12.30;99.90
9414;DHT22;4746;35.664;139.738;2022-11-15T16:43:49;12.30;99.90
9414;DHT22;4746;35.664;139.738;2022-11-15T16:46:22;12.40;99.90
9414;DHT22;4746;35.664;139.738;2022-11-15T16:48:52;12.40;99.90
9414;DHT22;4746;35.664;139.738;2022-11-15T16:51:20;12.40;99.90
9414;DHT22;4746;35.664;139.738;2022-11-15T16:53:48;12.40;99.90
9414;DHT22;4746;35.664;139.738;2022-11-15T16:56:26;12.30;99.90
9414;DHT22;4746;35.664;139.738;2022-11-15T16:58:56;12.30;99.90
9414;DHT22;4746;35.664;139.738;2022-11-15T17:01:32;12.30;99.90
9414;DHT22;4746;35.664;139.738;2022-11-15T17:04:02;12.30;99.90
9414;DHT22;4746;35.664;139.738;2022-11-15T17:06:39;12.30;99.90
9414;DHT22;4746;35.664;139.738;2022-11-15T17:09:19;12.30;99.90
9414;DHT22;4746;35.664;139.738;2022-11-15T17:11:51;12.30;99.90
9414;DHT22;4746;35.664;139.738;2022-11-15T17:14:19;12.30;99.90
9414;DHT22;4746;35.664;139.738;2022-11-15T17:16:46;12.30;99.90
9414;DHT22;4746;35.664;139.738;2022-11-15T17:19:17;12.40;99.90
9414;DHT22;4746;35.664;139.738;2022-11-15T17:21:47;12.40;99.90
9414;DHT22;4746;35.664;139.738;2022-11-15T17:24:15;12.40;99.90
9414;DHT22;4746;35.664;139.738;2022-11-15T17:26:43;12.40;99.90
9414;DHT22;4746;35.664;139.738;2022-11-15T17:29:10;12.40;99.90
9414;DHT22;4746;35.664;139.738;2022-11-15T17:31:38;12.40;99.90
9414;DHT22;4746;35.664;139.738;2022-11-15T17:34:06;12.40;99.90
9414;DHT22;4746;35.664;139.738;2022-11-15T17:36:34;12.40;99.90
9414;DHT22;4746;35.664;139.738;2022-11-15T17:39:02;12.40;99.90
9414;DHT22;4746;35.664;139.738;2022-11-15T17:41:30;12.40;99.90
9414;DHT22;4746;35.664;139.738;2022-11-15T17:43:59;12.40;99.90
9414;DHT22;4746;35.664;139.738;2022-11-15T17:46:28;12.40;99.90
9414;DHT22;4746;35.664;139.738;2022-11-15T17:48:57;12.40;99.90
9414;DHT22;4746;35.664;139.738;2022-11-15T17:51:25;12.40;99.90
9414;DHT22;4746;35.664;139.738;2022-11-15T17:53:53;12.40;99.90
9414;DHT22;4746;35.664;139.738;2022-11-15T17:56:25;12.30;99.90
9414;DHT22;4746;35.664;139.738;2022-11-15T17:58:57;12.30;99.90
9414;DHT22;4746;35.664;139.738;2022-11-15T18:01:31;12.30;99.90